This is the latest recevied weather packets stored in our database for station/object WA4OPQ-1. If no packets are shown the sender has not sent any weather packets the latest 10 day(s).
| Time | Temp. | Humidity | Pressure | Rain* | Wind** | Luminosity | Snow |
|---|---|---|---|---|---|---|---|
| 1787616541 | 22.78° C | 72% | 1013.7 hPa | 0 mm | 0 m/s | 7 W/m² | - |
| 1787615994 | 22.78° C | 71% | 1013.6 hPa | 0 mm | 0 m/s | 11 W/m² | - |
| 1787615514 | 22.78° C | 71% | 1013.7 hPa | 0 mm | 0 m/s | 12 W/m² | - |
| 1787614933 | 23.33° C | 72% | 1013.6 hPa | 0 mm | 0 m/s | 13 W/m² | - |
| 1787614374 | 23.33° C | 72% | 1013.8 hPa | 0 mm | 0 m/s | 19 W/m² | - |
| 1787613874 | 23.89° C | 73% | 1013.9 hPa | 0 mm | 0 m/s | 17 W/m² | - |
| 1787613309 | 23.89° C | 70% | 1013.7 hPa | 0 mm | 0 m/s | 15 W/m² | - |
| 1787612721 | 23.89° C | 69% | 1013.8 hPa | 0 mm | 0 m/s | 23 W/m² | - |
| 1787612134 | 24.44° C | 67% | 1013.6 hPa | 0 mm | 0 m/s | 22 W/m² | - |
| 1787611539 | 24.44° C | 66% | 1013.5 hPa | 0 mm | 0 m/s | 24 W/m² | - |
| 1787611049 | 25° C | 66% | 1013.5 hPa | 0 mm | 0 m/s | 26 W/m² | - |
| 1787610519 | 25° C | 65% | 1013.4 hPa | 0 mm | 0 m/s | 28 W/m² | - |
| 1787610001 | 25.56° C | 65% | 1013.6 hPa | 0 mm | 0 m/s | 30 W/m² | - |
| 1787609504 | 25.56° C | 65% | 1013.4 hPa | 0 mm | 0 m/s | 34 W/m² | - |
| 1787608964 | 26.11° C | 65% | 1013.2 hPa | 0 mm | 0 m/s | 33 W/m² | - |
| 1787608434 | 26.67° C | 62% | 1013.1 hPa | 0 mm | 0 m/s | 35 W/m² | - |
| 1787607941 | 27.22° C | 60% | 1013 hPa | 0 mm | 0 m/s | 39 W/m² | - |
| 1787607449 | 28.33° C | 60% | 1013 hPa | 0 mm | 0 m/s | 328 W/m² | - |
| 1787606964 | 27.78° C | 62% | 1012.9 hPa | 0 mm | 0 m/s | 139 W/m² | - |
| 1787606369 | 28.33° C | 58% | 1012.4 hPa | 0 mm | 0 m/s | 160 W/m² | - |
| 1787605804 | 29.44° C | 56% | 1012.8 hPa | 0 mm | 0.45 m/s, 325° | 376 W/m² | - |
| 1787605229 | 28.89° C | 58% | 1012.8 hPa | 0 mm | 0 m/s | 388 W/m² | - |
| 1787604741 | 28.33° C | 55% | 1013.1 hPa | 0 mm | 0.45 m/s, 322° | 184 W/m² | - |
| 1787604239 | 29.44° C | 57% | 1013.1 hPa | 0 mm | 0.45 m/s, 324° | 124 W/m² | - |
| 1787603719 | 29.44° C | 58% | 1012.9 hPa | 0 mm | 0.45 m/s, 328° | 515 W/m² | - |
* Rain latest hour (hover to see other rain measurements)
** Current wind speed in m/s (hover to see current wind gust speed)